Time;durP1;ratioP1;P1;durP2;ratioP2;P2;SDS_P1;SDS_P2;PMS_P1;PMS_P2;Temp;Humidity;BMP_temperature;BMP_pressure;BME280_temperature;BME280_humidity;BME280_pressure;Samples;Min_cycle;Max_cycle;Signal;HPM_P1;HPM_P2
2022/10/30 00:20:36;;;;;;;8.23;4.13;;;13.70;99.90;;;;;;6232491;22;20023;-92
2022/10/30 00:23:40;;;;;;;;;;;13.70;99.90;;;;;;6288601;22;20440;-92
2022/10/30 00:26:06;;;;;;;7.65;4.28;;;13.70;99.90;;;;;;6287110;22;19921;-91
2022/10/30 00:28:33;;;;;;;8.57;4.50;;;13.70;99.90;;;;;;6287192;22;20031;-93
2022/10/30 00:31:00;;;;;;;8.23;3.45;;;13.70;99.90;;;;;;6290177;22;20021;-92
2022/10/30 00:33:26;;;;;;;8.55;3.85;;;13.70;99.90;;;;;;6289583;22;20018;-92
2022/10/30 00:35:51;;;;;;;8.05;3.95;;;13.70;99.90;;;;;;6284080;22;20015;-93
2022/10/30 00:38:17;;;;;;;7.40;4.10;;;13.70;99.90;;;;;;6286977;22;20011;-92
2022/10/30 00:40:43;;;;;;;9.90;4.37;;;13.60;99.90;;;;;;6286716;22;20313;-94
2022/10/30 00:43:29;;;;;;;9.37;4.47;;;13.60;99.90;;;;;;6286725;22;20507;-94
2022/10/30 00:45:57;;;;;;;9.07;3.83;;;13.60;99.90;;;;;;6286482;22;20253;-92
2022/10/30 00:48:25;;;;;;;7.63;3.83;;;13.50;99.90;;;;;;6286516;22;20726;-93
2022/10/30 00:50:52;;;;;;;10.60;4.38;;;13.60;99.90;;;;;;6286481;22;20448;-95
2022/10/30 00:53:20;;;;;;;7.80;3.85;;;13.50;99.90;;;;;;6286760;22;20014;-93
2022/10/30 00:55:56;;;;;;;9.38;4.25;;;13.50;99.90;;;;;;6286612;22;20022;-93
2022/10/30 00:58:33;;;;;;;8.63;4.27;;;13.50;99.90;;;;;;6286694;22;20018;-94
2022/10/30 01:01:03;;;;;;;7.00;3.72;;;13.50;99.90;;;;;;6286714;22;20340;-93
2022/10/30 01:03:30;;;;;;;7.45;3.97;;;13.40;99.90;;;;;;6286429;22;20023;-95
2022/10/30 01:05:57;;;;;;;;;;;13.40;99.90;;;;;;6286871;22;20017;-94
2022/10/30 01:08:23;;;;;;;8.60;4.10;;;13.40;99.90;;;;;;6286590;22;20243;-94
2022/10/30 01:10:49;;;;;;;7.53;4.00;;;13.40;99.90;;;;;;6301689;22;20015;-94
2022/10/30 01:13:18;;;;;;;10.23;4.40;;;13.40;99.90;;;;;;6300319;22;20023;-94
2022/10/30 01:16:05;;;;;;;8.57;3.95;;;13.30;99.90;;;;;;6286335;22;20519;-95
2022/10/30 01:25:20;;;;;;;8.02;4.28;;;13.20;99.90;;;;;;6234526;22;20023;-93
2022/10/30 01:28:04;;;;;;;10.25;4.03;;;13.20;99.90;;;;;;6286291;22;20018;-94
2022/10/30 01:31:07;;;;;;;9.40;3.60;;;13.20;99.90;;;;;;6286216;22;20019;-94
2022/10/30 01:33:42;;;;;;;8.80;4.45;;;13.20;99.90;;;;;;6286063;22;20018;-93
2022/10/30 01:36:37;;;;;;;7.93;3.80;;;13.20;99.90;;;;;;6286676;22;20046;-93
2022/10/30 01:39:16;;;;;;;9.85;4.50;;;13.20;99.90;;;;;;6286604;22;20448;-94
2022/10/30 01:41:43;;;;;;;9.00;5.15;;;13.20;99.90;;;;;;6286236;22;20452;-92
2022/10/30 01:44:17;;;;;;;9.25;3.97;;;13.20;99.90;;;;;;6261110;22;20011;-93
2022/10/30 01:46:47;;;;;;;7.03;3.70;;;13.10;99.90;;;;;;6286352;22;20019;-93
2022/10/30 01:56:52;;;;;;;6.72;3.55;;;13.00;99.90;;;;;;6340067;22;20014;-94
2022/10/30 01:59:36;;;;;;;9.15;4.07;;;13.10;99.90;;;;;;6285622;22;20085;-93
2022/10/30 02:13:40;;;;;;;;;;;;;;;;;;;;;
2022/10/30 02:16:09;;;;;;;7.10;4.03;;;12.90;99.90;;;;;;6250470;22;20531;-94
2022/10/30 02:44:29;;;;;;;7.65;3.85;;;13.10;99.90;;;;;;6340334;22;20026;-94
2022/10/30 02:47:43;;;;;;;;;;;;;;;;;;;;;
2022/10/30 02:50:58;;;;;;;10.57;4.47;;;13.10;99.90;;;;;;6291179;22;20093;-94
2022/10/30 02:54:07;;;;;;;6.68;3.67;;;13.20;99.90;;;;;;6275330;22;20022;-93
2022/10/30 02:56:56;;;;;;;9.23;4.45;;;13.20;99.90;;;;;;6316504;22;20103;-94
2022/10/30 03:00:01;;;;;;;8.15;4.40;;;13.30;99.90;;;;;;6287844;22;20011;-94
2022/10/30 03:02:39;;;;;;;;;;;;;;;;;;;;;
2022/10/30 03:05:15;;;;;;;9.27;4.72;;;13.40;99.90;;;;;;6313579;22;20011;-93
2022/10/30 03:08:20;;;;;;;;;;;;;;;;;;;;;
2022/10/30 03:20:43;;;;;;;9.57;3.65;;;13.40;99.90;;;;;;6297378;22;19914;-94
2022/10/30 03:24:16;;;;;;;;;;;;;;;;;;;;;
2022/10/30 03:26:58;;;;;;;10.65;4.43;;;13.30;99.90;;;;;;6312726;22;20043;-94
2022/10/30 03:29:30;;;;;;;9.90;3.92;;;13.30;99.90;;;;;;6287361;22;20072;-95
2022/10/30 03:32:11;;;;;;;;;;;;;;;;;;;;;
2022/10/30 03:35:15;;;;;;;;;;;;;;;;;;;;;
2022/10/30 03:37:50;;;;;;;8.20;3.67;;;13.20;99.90;;;;;;6313124;22;20086;-93
2022/10/30 03:40:24;;;;;;;9.90;4.25;;;13.10;99.90;;;;;;6287281;22;20018;-94
2022/10/30 05:05:09;;;;;;;11.23;3.80;;;13.20;99.90;;;;;;6181019;22;20028;-95
2022/10/30 05:07:50;;;;;;;9.82;3.70;;;13.10;99.90;;;;;;6184857;23;20108;-95
2022/10/30 05:15:07;;;;;;;11.35;4.00;;;13.00;99.90;;;;;;6244554;23;20106;-93
2022/10/30 05:18:05;;;;;;;8.25;4.00;;;13.00;99.90;;;;;;6175801;23;20367;-92
2022/10/30 05:20:49;;;;;;;9.05;3.50;;;13.00;99.90;;;;;;6193856;23;20035;-96
2022/10/30 05:23:56;;;;;;;8.48;3.92;;;13.00;99.90;;;;;;6189820;23;20023;-94
2022/10/30 05:27:24;;;;;;;7.47;3.50;;;13.00;99.90;;;;;;6313877;22;20049;-93
2022/10/30 05:30:17;;;;;;;7.82;3.88;;;12.90;99.90;;;;;;6193401;23;20442;-94
2022/10/30 05:32:43;;;;;;;8.38;3.58;;;12.90;99.90;;;;;;6193415;23;20023;-96
2022/10/30 05:35:08;;;;;;;9.97;4.90;;;12.90;99.90;;;;;;6219121;23;20012;-96
2022/10/30 05:37:34;;;;;;;7.50;3.60;;;12.90;99.90;;;;;;6218985;23;20250;-95
2022/10/30 05:40:00;;;;;;;9.50;3.42;;;12.90;99.90;;;;;;6219194;23;20056;-92
2022/10/30 05:42:26;;;;;;;9.13;4.00;;;12.80;99.90;;;;;;6219432;23;20008;-96
2022/10/30 05:48:56;;;;;;;9.48;3.88;;;12.80;99.90;;;;;;6244932;23;20237;-95
2022/10/30 05:51:21;;;;;;;11.18;3.85;;;12.70;99.90;;;;;;6236962;22;20019;-95
2022/10/30 05:53:48;;;;;;;9.13;4.15;;;12.70;99.90;;;;;;6254281;22;20098;-95
2022/10/30 05:56:32;;;;;;;;;;;12.80;99.90;;;;;;6256962;22;20438;-94
2022/10/30 05:58:58;;;;;;;8.35;4.30;;;12.80;99.90;;;;;;6268125;22;19922;-92
2022/10/30 06:01:24;;;;;;;9.98;3.95;;;12.80;99.90;;;;;;6219739;23;20013;-95
2022/10/30 06:03:50;;;;;;;8.55;3.95;;;12.80;99.90;;;;;;6196383;23;20019;-94
2022/10/30 06:06:15;;;;;;;11.77;4.20;;;12.90;99.90;;;;;;6185594;23;20027;-93
2022/10/30 06:08:41;;;;;;;10.90;4.20;;;12.90;99.90;;;;;;6185626;23;20313;-94
2022/10/30 06:11:07;;;;;;;12.10;4.80;;;12.90;99.90;;;;;;6186318;23;20027;-94
2022/10/30 06:13:32;;;;;;;9.50;4.83;;;12.90;99.90;;;;;;6187060;23;20278;-96
2022/10/30 06:15:58;;;;;;;9.50;4.97;;;12.90;99.90;;;;;;6186737;23;20092;-94
2022/10/30 07:11:44;;;;;;;13.40;5.40;;;13.30;99.90;;;;;;6234524;22;20022;-95
2022/10/30 07:14:11;;;;;;;10.98;5.30;;;13.30;99.90;;;;;;6287575;22;20022;-94
2022/10/30 07:16:36;;;;;;;8.68;4.65;;;13.30;99.90;;;;;;6287697;22;20015;-93
2022/10/30 07:19:02;;;;;;;11.27;5.27;;;13.30;99.90;;;;;;6287385;22;20015;-94
2022/10/30 07:21:28;;;;;;;11.05;5.55;;;13.30;99.90;;;;;;6287441;22;20350;-93
2022/10/30 07:23:54;;;;;;;8.73;4.82;;;13.30;99.90;;;;;;6262230;22;20050;-93
2022/10/30 07:26:38;;;;;;;10.13;5.43;;;13.30;99.90;;;;;;6288045;22;20018;-92
2022/10/30 07:29:04;;;;;;;10.98;5.10;;;13.30;99.90;;;;;;6261828;22;20025;-93
2022/10/30 07:31:30;;;;;;;10.90;5.03;;;13.30;99.90;;;;;;6287413;22;20042;-94
2022/10/30 07:33:56;;;;;;;9.43;5.03;;;13.40;99.90;;;;;;6287427;22;20015;-93
2022/10/30 07:36:22;;;;;;;10.00;4.57;;;13.40;99.90;;;;;;6287364;22;20015;-93
2022/10/30 07:38:49;;;;;;;9.20;4.70;;;13.40;99.90;;;;;;6287621;22;20019;-92
2022/10/30 07:41:17;;;;;;;11.50;5.63;;;13.50;99.90;;;;;;6287521;22;20351;-93
2022/10/30 07:43:43;;;;;;;9.63;5.03;;;13.50;99.90;;;;;;6287605;22;20444;-93
2022/10/30 07:46:09;;;;;;;10.85;5.07;;;13.50;99.90;;;;;;6287515;22;20068;-93
2022/10/30 07:48:35;;;;;;;12.68;5.38;;;13.60;99.90;;;;;;6287530;22;20049;-93
2022/10/30 07:51:00;;;;;;;9.60;4.23;;;13.60;99.90;;;;;;6287613;22;20015;-92
2022/10/30 07:53:26;;;;;;;12.88;5.53;;;13.60;99.90;;;;;;6287256;22;20268;-93
2022/10/30 07:55:52;;;;;;;12.73;5.57;;;13.70;99.90;;;;;;6287394;22;20042;-93
2022/10/30 07:58:18;;;;;;;11.73;5.55;;;13.70;99.90;;;;;;6287680;22;20501;-93
2022/10/30 08:00:44;;;;;;;11.30;5.50;;;13.70;99.90;;;;;;6313416;22;20075;-92
2022/10/30 08:03:10;;;;;;;8.75;4.93;;;13.80;99.90;;;;;;6291049;22;20019;-93
2022/10/30 08:05:36;;;;;;;11.98;5.25;;;13.80;99.90;;;;;;6315340;22;20068;-93
2022/10/30 08:08:02;;;;;;;10.43;5.85;;;13.80;99.90;;;;;;6306410;22;20019;-92
2022/10/30 08:10:28;;;;;;;10.65;5.63;;;13.90;99.90;;;;;;6286876;22;20006;-94
2022/10/30 08:12:53;;;;;;;9.27;4.80;;;13.90;99.90;;;;;;6217958;22;20099;-94
2022/10/30 08:15:19;;;;;;;9.55;5.00;;;14.00;99.90;;;;;;6186099;23;20016;-93
2022/10/30 08:18:02;;;;;;;;;;;;;;;;;;;;;
2022/10/30 08:20:39;;;;;;;9.05;4.70;;;14.00;99.90;;;;;;6210896;22;20017;-93
2022/10/30 08:23:11;;;;;;;;;;;14.10;99.90;;;;;;6186566;23;20025;-93
2022/10/30 08:25:48;;;;;;;13.07;5.57;;;14.10;99.90;;;;;;6185808;23;19916;-93
2022/10/30 08:28:21;;;;;;;10.70;5.75;;;14.20;99.90;;;;;;6164377;23;20017;-93
2022/10/30 08:31:07;;;;;;;;;;;;;;;;;;;;;
2022/10/30 08:33:52;;;;;;;13.50;5.32;;;14.20;99.90;;;;;;6189073;23;20511;-93
2022/10/30 08:36:36;;;;;;;9.32;5.00;;;14.30;99.90;;;;;;6162427;23;20097;-93
2022/10/30 08:39:16;;;;;;;11.63;5.32;;;14.40;99.90;;;;;;6161656;23;20474;-93
2022/10/30 08:41:45;;;;;;;11.50;5.55;;;14.40;99.90;;;;;;6203092;23;20031;-93
2022/10/30 08:44:11;;;;;;;11.80;5.00;;;14.50;99.90;;;;;;6186196;23;20020;-94
2022/10/30 08:46:37;;;;;;;12.63;5.03;;;14.60;99.90;;;;;;6161368;23;20017;-93
2022/10/30 08:49:03;;;;;;;11.57;5.00;;;14.60;99.90;;;;;;6186006;23;20022;-93
2022/10/30 08:51:33;;;;;;;11.65;5.40;;;14.60;99.90;;;;;;6185649;23;20070;-94
2022/10/30 08:53:59;;;;;;;9.35;4.72;;;14.60;99.90;;;;;;6185658;23;20024;-94
2022/10/30 08:56:26;;;;;;;11.30;5.43;;;14.70;99.90;;;;;;6185794;23;20021;-93
2022/10/30 08:58:52;;;;;;;12.77;5.10;;;14.80;99.90;;;;;;6185836;23;20051;-93
2022/10/30 09:01:18;;;;;;;9.68;4.97;;;14.80;99.90;;;;;;6161282;23;20361;-93
2022/10/30 09:03:44;;;;;;;9.82;4.65;;;14.90;99.90;;;;;;6185779;23;20034;-94
2022/10/30 09:06:10;;;;;;;;;;;14.90;99.90;;;;;;6186290;23;20012;-94
2022/10/30 09:08:36;;;;;;;11.82;5.15;;;15.00;99.90;;;;;;6185930;23;19965;-93
2022/10/30 09:11:02;;;;;;;10.75;5.07;;;15.00;99.90;;;;;;6161151;23;20040;-93
2022/10/30 09:13:28;;;;;;;;;;;15.10;99.90;;;;;;6186026;23;20029;-93
2022/10/30 09:16:00;;;;;;;10.07;4.88;;;15.10;99.90;;;;;;6186208;23;19975;-95
2022/10/30 09:19:15;;;;;;;10.48;5.13;;;15.20;99.90;;;;;;6162220;23;20028;-94
2022/10/30 10:25:38;;;;;;;7.63;3.50;;;16.60;99.90;;;;;;6238209;22;20078;-95
2022/10/30 10:28:34;;;;;;;8.48;3.63;;;16.60;99.90;;;;;;6262339;22;20027;-95
2022/10/30 10:31:32;;;;;;;6.95;3.63;;;16.70;99.90;;;;;;6288727;22;20292;-94
2022/10/30 10:34:16;;;;;;;8.95;3.92;;;16.80;99.90;;;;;;6288103;22;20018;-94
2022/10/30 10:37:15;;;;;;;8.00;3.70;;;16.90;99.90;;;;;;6288306;22;20018;-94
2022/10/30 10:39:51;;;;;;;8.90;3.80;;;16.90;99.90;;;;;;6287617;22;20014;-95
2022/10/30 10:42:51;;;;;;;6.85;3.50;;;17.10;99.90;;;;;;6301310;22;20062;-94
2022/10/30 10:45:43;;;;;;;8.52;3.10;;;17.10;99.90;;;;;;6315345;22;20022;-95
2022/10/30 10:48:20;;;;;;;9.02;3.45;;;17.20;99.90;;;;;;6289350;22;20034;-95
2022/10/30 10:50:56;;;;;;;8.65;3.33;;;17.20;99.90;;;;;;6287732;22;20019;-94
2022/10/30 10:53:38;;;;;;;7.67;3.07;;;17.30;99.90;;;;;;6287820;22;20535;-94
2022/10/30 11:36:27;;;;;;;6.57;3.03;;;17.90;99.90;;;;;;6206103;22;20031;-94
2022/10/30 13:59:23;;;;;;;7.53;2.88;;;18.00;99.90;;;;;;6235172;22;20019;-94
2022/10/30 14:02:33;;;;;;;5.05;2.08;;;18.00;99.90;;;;;;6286179;22;20233;-93
2022/10/30 14:05:02;;;;;;;5.28;2.38;;;18.00;99.90;;;;;;6286346;22;20014;-94
2022/10/30 14:07:37;;;;;;;6.63;3.10;;;18.00;99.90;;;;;;6312608;22;20050;-95
2022/10/30 14:10:12;;;;;;;5.55;2.92;;;18.00;99.90;;;;;;6287646;22;20046;-93
2022/10/30 14:12:56;;;;;;;4.88;2.53;;;18.00;99.90;;;;;;6286784;22;20015;-95
2022/10/30 14:16:06;;;;;;;7.53;2.60;;;18.00;99.90;;;;;;6285970;22;20019;-93
2022/10/30 14:19:13;;;;;;;5.88;2.85;;;18.00;99.90;;;;;;6216571;22;20015;-96
2022/10/30 14:27:15;;;;;;;7.47;3.03;;;17.90;99.90;;;;;;6325666;22;20025;-95
2022/10/30 14:33:56;;;;;;;6.78;2.78;;;17.90;99.90;;;;;;6310869;22;20019;-96
2022/10/30 14:50:48;;;;;;;7.43;3.85;;;17.70;99.90;;;;;;6341593;22;20033;-90
2022/10/30 14:53:51;;;;;;;8.82;3.58;;;17.70;99.90;;;;;;6287757;22;20072;-92
2022/10/30 14:56:39;;;;;;;10.60;3.50;;;17.70;99.90;;;;;;6288547;22;20023;-95
2022/10/30 14:59:11;;;;;;;8.98;4.28;;;17.70;99.90;;;;;;6288089;22;20072;-96
2022/10/30 15:02:01;;;;;;;7.28;3.47;;;17.60;99.90;;;;;;6290853;22;20019;-95
2022/10/30 15:04:33;;;;;;;8.35;4.03;;;17.60;99.90;;;;;;6295736;22;20014;-96
2022/10/30 15:07:17;;;;;;;9.18;4.45;;;17.60;99.90;;;;;;6322690;22;20021;-95
2022/10/30 15:20:50;;;;;;;9.27;4.25;;;17.40;99.90;;;;;;6349349;22;20041;-91
2022/10/30 16:00:30;;;;;;;8.52;4.03;;;16.90;99.90;;;;;;6340323;22;20348;-94
2022/10/30 16:03:17;;;;;;;8.55;4.40;;;16.80;99.90;;;;;;6287242;22;20026;-94
2022/10/30 16:05:46;;;;;;;10.10;3.92;;;16.80;99.90;;;;;;6287460;22;20058;-91
2022/10/30 16:08:22;;;;;;;8.05;3.80;;;16.80;99.90;;;;;;6287262;22;20011;-93
2022/10/30 16:10:52;;;;;;;9.63;4.75;;;16.70;99.90;;;;;;6286024;22;20053;-92
2022/10/30 16:13:27;;;;;;;10.73;4.57;;;16.70;99.90;;;;;;6286932;22;20010;-94
2022/10/30 16:15:53;;;;;;;9.05;3.65;;;16.60;99.90;;;;;;6286617;22;20014;-91
2022/10/30 16:18:44;;;;;;;9.02;4.20;;;16.60;99.90;;;;;;6261293;22;20090;-89
2022/10/30 18:34:33;;;;;;;16.42;7.72;;;16.60;99.90;;;;;;6199791;22;20027;-94
2022/10/30 19:23:19;;;;;;;14.55;7.70;;;16.40;99.90;;;;;;6269444;22;20019;-94
2022/10/30 19:25:46;;;;;;;12.20;7.22;;;16.40;99.90;;;;;;6184130;23;20032;-93
2022/10/30 19:33:58;;;;;;;13.43;6.85;;;16.30;99.90;;;;;;6157653;23;20048;-94
2022/10/30 19:39:21;;;;;;;15.13;7.30;;;16.30;99.90;;;;;;6235388;22;20401;-92
2022/10/30 19:41:55;;;;;;;13.95;7.03;;;16.30;99.90;;;;;;6287356;22;20023;-92
2022/10/30 19:44:24;;;;;;;13.77;7.30;;;16.30;99.90;;;;;;6264655;22;20444;-96
2022/10/30 19:46:50;;;;;;;14.65;7.47;;;16.30;99.90;;;;;;6287508;22;20021;-95
2022/10/30 19:49:17;;;;;;;12.70;7.50;;;16.30;99.90;;;;;;6287232;22;20014;-96
2022/10/30 19:51:50;;;;;;;13.80;7.28;;;16.20;99.90;;;;;;6287261;22;20025;-95
2022/10/30 19:54:16;;;;;;;15.05;8.45;;;16.20;99.90;;;;;;6261558;22;20022;-96
2022/10/30 19:56:42;;;;;;;13.45;8.05;;;16.20;99.90;;;;;;6287329;22;20021;-94
2022/10/30 20:10:20;;;;;;;15.98;9.07;;;16.10;99.90;;;;;;6340514;22;20023;-91
2022/10/30 20:12:57;;;;;;;16.15;7.95;;;16.00;99.90;;;;;;6288926;22;20019;-95
2022/10/30 20:18:04;;;;;;;13.52;7.07;;;16.00;99.90;;;;;;6340720;22;20022;-93
2022/10/30 20:20:33;;;;;;;12.90;6.97;;;16.00;99.90;;;;;;6293455;22;20090;-92
2022/10/30 20:23:02;;;;;;;15.45;6.93;;;16.00;99.90;;;;;;6312554;22;20069;-92
2022/10/30 20:34:22;;;;;;;15.93;8.18;;;15.90;99.90;;;;;;6339719;22;20034;-96
2022/10/30 20:41:53;;;;;;;12.90;6.78;;;15.90;99.90;;;;;;6326272;22;20325;-93
2022/10/30 20:44:19;;;;;;;14.52;6.63;;;15.90;99.90;;;;;;6286895;22;20022;-94
2022/10/30 20:47:29;;;;;;;14.48;7.07;;;15.80;99.90;;;;;;6286849;22;20017;-93
2022/10/30 20:49:55;;;;;;;11.68;6.53;;;15.80;99.90;;;;;;6286640;22;20329;-92
2022/10/30 20:52:24;;;;;;;13.52;6.97;;;15.80;99.90;;;;;;6286967;22;20081;-91
2022/10/30 20:55:19;;;;;;;;;;;15.70;99.90;;;;;;6315637;22;20024;-92
2022/10/30 21:18:31;;;;;;;14.88;6.38;;;15.50;99.90;;;;;;6304748;22;20076;-92
2022/10/30 21:21:06;;;;;;;12.25;6.13;;;15.40;99.90;;;;;;6286440;22;20018;-93
2022/10/30 21:23:32;;;;;;;12.55;5.68;;;15.40;99.90;;;;;;6286456;22;20014;-92
2022/10/30 21:26:01;;;;;;;13.77;6.45;;;15.40;99.90;;;;;;6286716;22;20444;-93
2022/10/30 21:28:27;;;;;;;14.07;6.10;;;15.40;99.90;;;;;;6286483;22;20022;-93
2022/10/30 21:30:53;;;;;;;16.00;5.65;;;15.40;99.90;;;;;;6287251;22;20011;-94
2022/10/30 21:33:21;;;;;;;11.82;5.63;;;15.40;99.90;;;;;;6286594;22;20019;-93
2022/10/30 21:35:56;;;;;;;;;;;;;;;;;;;;;
2022/10/30 21:38:30;;;;;;;11.97;5.80;;;15.40;99.90;;;;;;6311591;22;20021;-94
2022/10/30 21:40:56;;;;;;;13.45;5.65;;;15.30;99.90;;;;;;6285637;22;20060;-93
2022/10/30 21:43:21;;;;;;;11.82;5.22;;;15.30;99.90;;;;;;6286007;22;20015;-93
2022/10/30 21:45:47;;;;;;;12.35;5.63;;;15.30;99.90;;;;;;6286099;22;20487;-92
2022/10/30 21:48:13;;;;;;;10.50;5.13;;;15.30;99.90;;;;;;6286180;22;20463;-93
2022/10/30 21:50:39;;;;;;;10.73;5.55;;;15.30;99.90;;;;;;6286267;22;20022;-94
2022/10/30 21:53:05;;;;;;;12.30;5.43;;;15.30;99.90;;;;;;6286050;22;20526;-93
2022/10/30 21:55:30;;;;;;;12.43;5.55;;;15.30;99.90;;;;;;6286480;22;20054;-93
2022/10/30 21:57:56;;;;;;;12.27;5.47;;;15.30;99.90;;;;;;6286303;22;20006;-93
2022/10/30 22:00:22;;;;;;;13.52;5.80;;;15.30;99.90;;;;;;6285801;22;20025;-93
2022/10/30 22:02:47;;;;;;;12.50;5.80;;;15.30;99.90;;;;;;6286275;22;20007;-93
2022/10/30 22:05:13;;;;;;;12.50;5.80;;;15.30;99.90;;;;;;6286179;22;20018;-94
2022/10/30 22:07:39;;;;;;;11.45;5.38;;;15.30;99.90;;;;;;6284725;22;20245;-95
2022/10/30 22:17:51;;;;;;;12.25;5.80;;;15.20;99.90;;;;;;6326071;22;20456;-95
2022/10/30 22:20:16;;;;;;;9.73;4.88;;;15.20;99.90;;;;;;6286362;22;20021;-94
2022/10/30 22:22:42;;;;;;;8.80;5.03;;;15.20;99.90;;;;;;6284947;22;20072;-94
2022/10/30 22:25:08;;;;;;;12.10;5.25;;;15.20;99.90;;;;;;6286594;22;20068;-94
2022/10/30 22:27:33;;;;;;;14.05;4.90;;;15.20;99.90;;;;;;6286243;22;20025;-94
2022/10/30 22:29:59;;;;;;;9.82;4.72;;;15.10;99.90;;;;;;6286412;22;20011;-96
2022/10/30 22:32:25;;;;;;;9.30;4.47;;;15.10;99.90;;;;;;6286466;22;20026;-94
2022/10/30 22:34:50;;;;;;;11.13;5.32;;;15.10;99.90;;;;;;6285958;22;20011;-94
2022/10/30 22:37:16;;;;;;;9.10;4.20;;;15.10;99.90;;;;;;6285958;22;20011;-95
2022/10/30 22:39:42;;;;;;;9.93;4.10;;;15.00;99.90;;;;;;6260572;22;20072;-95
2022/10/30 22:42:08;;;;;;;9.52;4.55;;;15.10;99.90;;;;;;6285915;22;20015;-94
2022/10/30 22:44:33;;;;;;;8.85;4.43;;;15.10;99.90;;;;;;6286292;22;20098;-95
2022/10/30 22:46:59;;;;;;;8.35;4.47;;;15.00;99.90;;;;;;6286016;22;20474;-95
2022/10/30 22:49:25;;;;;;;11.60;4.32;;;15.00;99.90;;;;;;6285987;22;20040;-96
2022/10/30 22:51:50;;;;;;;9.38;4.25;;;15.00;99.90;;;;;;6261123;22;20509;-94
2022/10/30 23:10:04;;;;;;;9.57;4.80;;;14.90;99.90;;;;;;6361013;22;20044;-94
2022/10/30 23:12:29;;;;;;;9.55;4.30;;;14.80;99.90;;;;;;6262361;22;20129;-92
2022/10/30 23:14:55;;;;;;;11.52;4.82;;;14.80;99.90;;;;;;6287426;22;20066;-92
2022/10/30 23:17:21;;;;;;;9.98;5.07;;;14.80;99.90;;;;;;6287739;22;20018;-95
2022/10/30 23:19:46;;;;;;;10.67;5.17;;;14.80;99.90;;;;;;6287512;22;20386;-93
2022/10/30 23:22:13;;;;;;;9.98;5.25;;;14.80;99.90;;;;;;6287475;22;20273;-92
2022/10/30 23:24:39;;;;;;;11.40;4.78;;;14.70;99.90;;;;;;6287443;22;20014;-93
2022/10/30 23:27:05;;;;;;;10.18;4.75;;;14.70;99.90;;;;;;6287522;22;20015;-93
2022/10/30 23:29:39;;;;;;;9.23;4.80;;;14.70;99.90;;;;;;6287420;22;20018;-93
2022/10/30 23:32:12;;;;;;;12.63;4.93;;;14.60;99.90;;;;;;6287540;22;20010;-94
2022/10/30 23:35:08;;;;;;;;;;;;;;;;;;;;;
2022/10/30 23:37:57;;;;;;;;;;;;;;;;;;;;;
2022/10/30 23:40:46;;;;;;;10.40;4.78;;;14.60;99.90;;;;;;6266719;22;20011;-93
2022/10/30 23:43:26;;;;;;;12.48;4.47;;;14.50;99.90;;;;;;6294040;22;20022;-92
2022/10/30 23:46:13;;;;;;;;;;;;;;;;;;;;;
